sensor_id;sensor_type;location;lat;lon;timestamp;temperature;humidity
59307;DHT22;47983;53.016;-2.260;2023-01-13T00:01:26;7.80;99.90
59307;DHT22;47983;53.016;-2.260;2023-01-13T00:03:56;7.60;99.90
59307;DHT22;47983;53.016;-2.260;2023-01-13T00:06:24;7.80;99.90
59307;DHT22;47983;53.016;-2.260;2023-01-13T00:08:53;7.80;99.90
59307;DHT22;47983;53.016;-2.260;2023-01-13T00:11:21;7.70;99.90
59307;DHT22;47983;53.016;-2.260;2023-01-13T00:13:49;7.60;99.90
59307;DHT22;47983;53.016;-2.260;2023-01-13T00:16:17;7.70;99.90
59307;DHT22;47983;53.016;-2.260;2023-01-13T00:18:46;7.60;99.90
59307;DHT22;47983;53.016;-2.260;2023-01-13T00:21:19;7.60;99.90
59307;DHT22;47983;53.016;-2.260;2023-01-13T00:23:47;7.60;99.90
59307;DHT22;47983;53.016;-2.260;2023-01-13T00:26:18;7.60;99.90
59307;DHT22;47983;53.016;-2.260;2023-01-13T00:28:46;7.50;99.90
59307;DHT22;47983;53.016;-2.260;2023-01-13T00:31:16;7.50;99.90
59307;DHT22;47983;53.016;-2.260;2023-01-13T00:33:44;7.40;99.90
59307;DHT22;47983;53.016;-2.260;2023-01-13T00:36:14;7.30;99.90
59307;DHT22;47983;53.016;-2.260;2023-01-13T00:38:42;7.30;99.90
59307;DHT22;47983;53.016;-2.260;2023-01-13T00:41:12;7.30;99.90
59307;DHT22;47983;53.016;-2.260;2023-01-13T00:43:40;7.30;99.90
59307;DHT22;47983;53.016;-2.260;2023-01-13T00:46:09;7.20;99.90
59307;DHT22;47983;53.016;-2.260;2023-01-13T00:48:37;7.20;99.90
59307;DHT22;47983;53.016;-2.260;2023-01-13T00:51:08;7.20;99.90
59307;DHT22;47983;53.016;-2.260;2023-01-13T00:53:38;7.20;99.90
59307;DHT22;47983;53.016;-2.260;2023-01-13T00:56:11;7.20;99.90
59307;DHT22;47983;53.016;-2.260;2023-01-13T00:58:41;7.20;99.90
59307;DHT22;47983;53.016;-2.260;2023-01-13T01:01:12;7.20;99.90
59307;DHT22;47983;53.016;-2.260;2023-01-13T01:03:40;7.20;99.90
59307;DHT22;47983;53.016;-2.260;2023-01-13T01:06:13;7.20;99.90
59307;DHT22;47983;53.016;-2.260;2023-01-13T01:08:41;7.20;99.90
59307;DHT22;47983;53.016;-2.260;2023-01-13T01:11:15;7.20;99.90
59307;DHT22;47983;53.016;-2.260;2023-01-13T01:13:44;7.20;99.90
59307;DHT22;47983;53.016;-2.260;2023-01-13T01:16:13;7.20;99.90
59307;DHT22;47983;53.016;-2.260;2023-01-13T01:18:43;7.20;99.90
59307;DHT22;47983;53.016;-2.260;2023-01-13T01:21:12;7.20;99.90
59307;DHT22;47983;53.016;-2.260;2023-01-13T01:23:41;7.20;99.90
59307;DHT22;47983;53.016;-2.260;2023-01-13T01:26:23;7.20;99.90
59307;DHT22;47983;53.016;-2.260;2023-01-13T01:28:51;7.20;99.90
59307;DHT22;47983;53.016;-2.260;2023-01-13T01:31:24;7.20;99.90
59307;DHT22;47983;53.016;-2.260;2023-01-13T01:33:53;7.20;99.90
59307;DHT22;47983;53.016;-2.260;2023-01-13T01:36:22;7.20;99.90
59307;DHT22;47983;53.016;-2.260;2023-01-13T01:38:54;7.20;99.90
59307;DHT22;47983;53.016;-2.260;2023-01-13T01:41:24;7.10;99.90
59307;DHT22;47983;53.016;-2.260;2023-01-13T01:46:47;7.20;99.90
59307;DHT22;47983;53.016;-2.260;2023-01-13T01:49:34;7.20;99.90
59307;DHT22;47983;53.016;-2.260;2023-01-13T01:52:13;7.20;99.90
59307;DHT22;47983;53.016;-2.260;2023-01-13T01:57:25;7.10;99.90
59307;DHT22;47983;53.016;-2.260;2023-01-13T01:59:53;7.10;99.90
59307;DHT22;47983;53.016;-2.260;2023-01-13T02:02:22;7.10;99.90
59307;DHT22;47983;53.016;-2.260;2023-01-13T02:04:51;7.10;99.90
59307;DHT22;47983;53.016;-2.260;2023-01-13T02:07:28;7.10;99.90
59307;DHT22;47983;53.016;-2.260;2023-01-13T02:09:58;7.10;99.90
59307;DHT22;47983;53.016;-2.260;2023-01-13T02:12:28;7.10;99.90
59307;DHT22;47983;53.016;-2.260;2023-01-13T02:23:48;7.00;99.90
59307;DHT22;47983;53.016;-2.260;2023-01-13T02:33:02;7.00;99.90
59307;DHT22;47983;53.016;-2.260;2023-01-13T02:44:21;7.00;99.90
59307;DHT22;47983;53.016;-2.260;2023-01-13T02:47:05;7.00;99.90
59307;DHT22;47983;53.016;-2.260;2023-01-13T02:49:51;7.00;99.90
59307;DHT22;47983;53.016;-2.260;2023-01-13T02:55:38;7.00;99.90
59307;DHT22;47983;53.016;-2.260;2023-01-13T02:58:09;7.00;99.90
59307;DHT22;47983;53.016;-2.260;2023-01-13T03:00:39;6.90;99.90
59307;DHT22;47983;53.016;-2.260;2023-01-13T03:03:08;7.00;99.90
59307;DHT22;47983;53.016;-2.260;2023-01-13T03:05:35;6.90;99.90
59307;DHT22;47983;53.016;-2.260;2023-01-13T03:08:39;6.90;99.90
59307;DHT22;47983;53.016;-2.260;2023-01-13T03:11:11;7.00;99.90
59307;DHT22;47983;53.016;-2.260;2023-01-13T03:16:29;6.90;99.90
59307;DHT22;47983;53.016;-2.260;2023-01-13T03:24:46;6.90;99.90
59307;DHT22;47983;53.016;-2.260;2023-01-13T03:27:31;6.90;99.90
59307;DHT22;47983;53.016;-2.260;2023-01-13T03:30:08;6.90;99.90
59307;DHT22;47983;53.016;-2.260;2023-01-13T03:32:44;6.90;99.90
59307;DHT22;47983;53.016;-2.260;2023-01-13T03:35:22;6.90;99.90
59307;DHT22;47983;53.016;-2.260;2023-01-13T03:38:23;6.90;99.90
59307;DHT22;47983;53.016;-2.260;2023-01-13T03:40:55;6.90;99.90
59307;DHT22;47983;53.016;-2.260;2023-01-13T03:43:37;6.90;99.90
59307;DHT22;47983;53.016;-2.260;2023-01-13T03:46:30;6.90;99.90
59307;DHT22;47983;53.016;-2.260;2023-01-13T03:49:01;6.90;99.90
59307;DHT22;47983;53.016;-2.260;2023-01-13T03:51:32;6.90;99.90
59307;DHT22;47983;53.016;-2.260;2023-01-13T03:54:06;6.80;99.90
59307;DHT22;47983;53.016;-2.260;2023-01-13T03:56:40;6.80;99.90
59307;DHT22;47983;53.016;-2.260;2023-01-13T03:59:15;6.70;99.90
59307;DHT22;47983;53.016;-2.260;2023-01-13T04:01:51;6.70;99.90
59307;DHT22;47983;53.016;-2.260;2023-01-13T04:04:34;6.60;99.90
59307;DHT22;47983;53.016;-2.260;2023-01-13T04:07:12;6.50;99.90
59307;DHT22;47983;53.016;-2.260;2023-01-13T04:09:50;6.50;99.90
59307;DHT22;47983;53.016;-2.260;2023-01-13T04:12:31;6.50;99.90
59307;DHT22;47983;53.016;-2.260;2023-01-13T04:15:21;6.50;99.90
59307;DHT22;47983;53.016;-2.260;2023-01-13T04:17:50;6.40;99.90
59307;DHT22;47983;53.016;-2.260;2023-01-13T04:20:18;6.40;99.90
59307;DHT22;47983;53.016;-2.260;2023-01-13T04:22:46;6.50;99.90
59307;DHT22;47983;53.016;-2.260;2023-01-13T04:25:13;6.40;99.90
59307;DHT22;47983;53.016;-2.260;2023-01-13T04:27:41;6.50;99.90
59307;DHT22;47983;53.016;-2.260;2023-01-13T04:30:09;6.50;99.90
59307;DHT22;47983;53.016;-2.260;2023-01-13T04:32:37;6.50;99.90
59307;DHT22;47983;53.016;-2.260;2023-01-13T04:35:05;6.50;99.90
59307;DHT22;47983;53.016;-2.260;2023-01-13T04:37:33;6.50;99.90
59307;DHT22;47983;53.016;-2.260;2023-01-13T04:40:00;6.50;99.90
59307;DHT22;47983;53.016;-2.260;2023-01-13T04:42:28;6.50;99.90
59307;DHT22;47983;53.016;-2.260;2023-01-13T04:44:56;6.50;99.90
59307;DHT22;47983;53.016;-2.260;2023-01-13T04:47:23;6.50;99.90
59307;DHT22;47983;53.016;-2.260;2023-01-13T04:49:51;6.50;99.90
59307;DHT22;47983;53.016;-2.260;2023-01-13T04:52:18;6.50;99.90
59307;DHT22;47983;53.016;-2.260;2023-01-13T04:54:46;6.50;99.90
59307;DHT22;47983;53.016;-2.260;2023-01-13T04:57:14;6.50;99.90
59307;DHT22;47983;53.016;-2.260;2023-01-13T04:59:41;6.40;99.90
59307;DHT22;47983;53.016;-2.260;2023-01-13T05:02:09;6.50;99.90
59307;DHT22;47983;53.016;-2.260;2023-01-13T05:04:41;6.40;99.90
59307;DHT22;47983;53.016;-2.260;2023-01-13T05:07:09;6.50;99.90
59307;DHT22;47983;53.016;-2.260;2023-01-13T05:09:36;6.50;99.90
59307;DHT22;47983;53.016;-2.260;2023-01-13T05:12:04;6.50;99.90
59307;DHT22;47983;53.016;-2.260;2023-01-13T05:14:50;6.60;99.90
59307;DHT22;47983;53.016;-2.260;2023-01-13T05:17:36;6.70;99.90
59307;DHT22;47983;53.016;-2.260;2023-01-13T05:20:05;6.70;99.90
59307;DHT22;47983;53.016;-2.260;2023-01-13T05:22:33;6.80;99.90
59307;DHT22;47983;53.016;-2.260;2023-01-13T05:25:19;6.80;99.90
59307;DHT22;47983;53.016;-2.260;2023-01-13T05:27:58;6.90;99.90
59307;DHT22;47983;53.016;-2.260;2023-01-13T05:30:31;6.90;99.90
59307;DHT22;47983;53.016;-2.260;2023-01-13T05:32:59;7.00;99.90
59307;DHT22;47983;53.016;-2.260;2023-01-13T05:35:27;7.00;99.90
59307;DHT22;47983;53.016;-2.260;2023-01-13T05:40:25;7.10;99.90
59307;DHT22;47983;53.016;-2.260;2023-01-13T05:43:14;7.10;99.90
59307;DHT22;47983;53.016;-2.260;2023-01-13T05:46:08;7.20;99.90
59307;DHT22;47983;53.016;-2.260;2023-01-13T05:48:38;7.20;99.90
59307;DHT22;47983;53.016;-2.260;2023-01-13T05:51:08;7.20;99.90
59307;DHT22;47983;53.016;-2.260;2023-01-13T05:53:36;7.20;99.90
59307;DHT22;47983;53.016;-2.260;2023-01-13T05:56:05;7.20;99.90
59307;DHT22;47983;53.016;-2.260;2023-01-13T05:58:33;7.20;99.90
59307;DHT22;47983;53.016;-2.260;2023-01-13T06:01:04;7.20;99.90
59307;DHT22;47983;53.016;-2.260;2023-01-13T06:03:32;7.20;99.90
59307;DHT22;47983;53.016;-2.260;2023-01-13T06:06:00;7.20;99.90
59307;DHT22;47983;53.016;-2.260;2023-01-13T06:08:30;7.30;99.90
59307;DHT22;47983;53.016;-2.260;2023-01-13T06:13:26;7.30;99.90
59307;DHT22;47983;53.016;-2.260;2023-01-13T06:15:56;7.30;99.90
59307;DHT22;47983;53.016;-2.260;2023-01-13T06:18:24;7.20;99.90
59307;DHT22;47983;53.016;-2.260;2023-01-13T06:20:51;7.30;99.90
59307;DHT22;47983;53.016;-2.260;2023-01-13T06:23:19;7.30;99.90
59307;DHT22;47983;53.016;-2.260;2023-01-13T06:25:57;7.30;99.90
59307;DHT22;47983;53.016;-2.260;2023-01-13T06:28:26;7.30;99.90
59307;DHT22;47983;53.016;-2.260;2023-01-13T06:30:57;7.30;99.90
59307;DHT22;47983;53.016;-2.260;2023-01-13T06:33:37;7.30;99.90
59307;DHT22;47983;53.016;-2.260;2023-01-13T06:36:12;7.30;99.90
59307;DHT22;47983;53.016;-2.260;2023-01-13T06:38:43;7.30;99.90
59307;DHT22;47983;53.016;-2.260;2023-01-13T06:43:39;7.30;99.90
59307;DHT22;47983;53.016;-2.260;2023-01-13T06:46:07;7.30;99.90
59307;DHT22;47983;53.016;-2.260;2023-01-13T06:48:35;7.40;99.90
59307;DHT22;47983;53.016;-2.260;2023-01-13T06:51:03;7.40;99.90
59307;DHT22;47983;53.016;-2.260;2023-01-13T06:53:31;7.40;99.90
59307;DHT22;47983;53.016;-2.260;2023-01-13T06:55:58;7.40;99.90
59307;DHT22;47983;53.016;-2.260;2023-01-13T06:58:26;7.40;99.90
59307;DHT22;47983;53.016;-2.260;2023-01-13T07:00:59;7.40;99.90
59307;DHT22;47983;53.016;-2.260;2023-01-13T07:05:55;7.50;99.90
59307;DHT22;47983;53.016;-2.260;2023-01-13T07:08:23;7.40;99.90
59307;DHT22;47983;53.016;-2.260;2023-01-13T07:10:51;7.50;99.90
59307;DHT22;47983;53.016;-2.260;2023-01-13T07:13:19;7.50;99.90
59307;DHT22;47983;53.016;-2.260;2023-01-13T07:16:07;7.50;99.90
59307;DHT22;47983;53.016;-2.260;2023-01-13T07:18:35;7.40;99.90
59307;DHT22;47983;53.016;-2.260;2023-01-13T07:21:08;7.40;99.90
59307;DHT22;47983;53.016;-2.260;2023-01-13T07:23:38;7.50;99.90
59307;DHT22;47983;53.016;-2.260;2023-01-13T07:26:08;7.50;99.90
59307;DHT22;47983;53.016;-2.260;2023-01-13T07:28:37;7.50;99.90
59307;DHT22;47983;53.016;-2.260;2023-01-13T07:31:16;7.50;99.90
59307;DHT22;47983;53.016;-2.260;2023-01-13T07:36:13;7.50;99.90
59307;DHT22;47983;53.016;-2.260;2023-01-13T07:38:41;7.50;99.90
59307;DHT22;47983;53.016;-2.260;2023-01-13T07:41:12;7.50;99.90
59307;DHT22;47983;53.016;-2.260;2023-01-13T07:43:59;7.50;99.90
59307;DHT22;47983;53.016;-2.260;2023-01-13T07:46:29;7.50;99.90
59307;DHT22;47983;53.016;-2.260;2023-01-13T07:48:57;7.60;99.90
59307;DHT22;47983;53.016;-2.260;2023-01-13T07:51:25;7.50;99.90
59307;DHT22;47983;53.016;-2.260;2023-01-13T07:53:53;7.50;99.90
59307;DHT22;47983;53.016;-2.260;2023-01-13T07:56:20;7.50;99.90
59307;DHT22;47983;53.016;-2.260;2023-01-13T07:58:48;7.50;99.90
59307;DHT22;47983;53.016;-2.260;2023-01-13T08:01:20;7.50;99.90
59307;DHT22;47983;53.016;-2.260;2023-01-13T08:03:47;7.40;99.90
59307;DHT22;47983;53.016;-2.260;2023-01-13T08:06:15;7.40;99.90
59307;DHT22;47983;53.016;-2.260;2023-01-13T08:08:43;7.40;99.90
59307;DHT22;47983;53.016;-2.260;2023-01-13T08:11:11;7.40;99.90
59307;DHT22;47983;53.016;-2.260;2023-01-13T08:13:38;7.40;99.90
59307;DHT22;47983;53.016;-2.260;2023-01-13T08:16:08;7.40;99.90
59307;DHT22;47983;53.016;-2.260;2023-01-13T08:18:37;7.40;99.90
59307;DHT22;47983;53.016;-2.260;2023-01-13T08:21:07;7.30;99.90
59307;DHT22;47983;53.016;-2.260;2023-01-13T08:23:35;7.40;99.90
59307;DHT22;47983;53.016;-2.260;2023-01-13T08:26:06;7.40;99.90
59307;DHT22;47983;53.016;-2.260;2023-01-13T08:28:34;7.30;99.90
59307;DHT22;47983;53.016;-2.260;2023-01-13T08:31:03;7.30;99.90
59307;DHT22;47983;53.016;-2.260;2023-01-13T08:33:32;7.40;99.90
59307;DHT22;47983;53.016;-2.260;2023-01-13T08:36:08;7.40;99.90
59307;DHT22;47983;53.016;-2.260;2023-01-13T08:38:36;7.40;99.90
59307;DHT22;47983;53.016;-2.260;2023-01-13T08:41:10;7.40;99.90
59307;DHT22;47983;53.016;-2.260;2023-01-13T08:43:38;7.40;99.90
59307;DHT22;47983;53.016;-2.260;2023-01-13T08:46:06;7.40;99.90
59307;DHT22;47983;53.016;-2.260;2023-01-13T08:48:34;7.40;99.90
59307;DHT22;47983;53.016;-2.260;2023-01-13T08:51:07;7.40;99.90
59307;DHT22;47983;53.016;-2.260;2023-01-13T08:53:35;7.40;99.90
59307;DHT22;47983;53.016;-2.260;2023-01-13T08:56:06;7.40;99.90
59307;DHT22;47983;53.016;-2.260;2023-01-13T08:58:38;7.40;99.90
59307;DHT22;47983;53.016;-2.260;2023-01-13T09:01:07;7.40;99.90
59307;DHT22;47983;53.016;-2.260;2023-01-13T09:03:36;7.50;99.90
59307;DHT22;47983;53.016;-2.260;2023-01-13T09:06:05;7.40;99.90
59307;DHT22;47983;53.016;-2.260;2023-01-13T09:11:01;7.50;99.90
59307;DHT22;47983;53.016;-2.260;2023-01-13T09:13:48;7.50;99.90
59307;DHT22;47983;53.016;-2.260;2023-01-13T09:16:16;7.40;99.90
59307;DHT22;47983;53.016;-2.260;2023-01-13T09:18:44;7.40;99.90
59307;DHT22;47983;53.016;-2.260;2023-01-13T09:21:12;7.40;99.90
59307;DHT22;47983;53.016;-2.260;2023-01-13T09:23:40;7.40;99.90
59307;DHT22;47983;53.016;-2.260;2023-01-13T09:26:08;7.50;99.90
59307;DHT22;47983;53.016;-2.260;2023-01-13T09:28:36;7.40;99.90
59307;DHT22;47983;53.016;-2.260;2023-01-13T09:31:03;7.50;99.90
59307;DHT22;47983;53.016;-2.260;2023-01-13T09:33:31;7.50;99.90
59307;DHT22;47983;53.016;-2.260;2023-01-13T09:36:18;7.60;99.90
59307;DHT22;47983;53.016;-2.260;2023-01-13T09:38:47;7.60;99.90
59307;DHT22;47983;53.016;-2.260;2023-01-13T09:41:23;7.70;99.90
59307;DHT22;47983;53.016;-2.260;2023-01-13T09:44:21;7.70;99.90
59307;DHT22;47983;53.016;-2.260;2023-01-13T09:46:57;7.70;99.90
59307;DHT22;47983;53.016;-2.260;2023-01-13T09:49:33;7.70;99.90
59307;DHT22;47983;53.016;-2.260;2023-01-13T09:52:12;7.70;99.90
59307;DHT22;47983;53.016;-2.260;2023-01-13T09:55:04;7.60;99.90
59307;DHT22;47983;53.016;-2.260;2023-01-13T09:57:35;7.60;99.90
59307;DHT22;47983;53.016;-2.260;2023-01-13T10:05:39;7.60;99.90
59307;DHT22;47983;53.016;-2.260;2023-01-13T10:08:24;7.70;99.90
59307;DHT22;47983;53.016;-2.260;2023-01-13T10:10:55;7.70;99.90
59307;DHT22;47983;53.016;-2.260;2023-01-13T10:13:25;7.80;99.90
59307;DHT22;47983;53.016;-2.260;2023-01-13T10:29:28;8.30;99.90
59307;DHT22;47983;53.016;-2.260;2023-01-13T10:31:58;8.40;99.90
59307;DHT22;47983;53.016;-2.260;2023-01-13T10:34:27;8.40;99.90
59307;DHT22;47983;53.016;-2.260;2023-01-13T10:36:58;8.50;99.90
59307;DHT22;47983;53.016;-2.260;2023-01-13T10:39:41;8.60;99.90
59307;DHT22;47983;53.016;-2.260;2023-01-13T10:42:20;8.60;99.90
59307;DHT22;47983;53.016;-2.260;2023-01-13T10:44:55;8.70;99.90
59307;DHT22;47983;53.016;-2.260;2023-01-13T10:47:35;8.70;99.90
59307;DHT22;47983;53.016;-2.260;2023-01-13T10:50:26;8.70;99.90
59307;DHT22;47983;53.016;-2.260;2023-01-13T10:53:16;8.70;99.90
59307;DHT22;47983;53.016;-2.260;2023-01-13T10:55:59;8.70;99.90
59307;DHT22;47983;53.016;-2.260;2023-01-13T10:58:27;8.70;99.90
59307;DHT22;47983;53.016;-2.260;2023-01-13T11:01:05;8.70;99.90
59307;DHT22;47983;53.016;-2.260;2023-01-13T11:03:38;8.80;99.90
59307;DHT22;47983;53.016;-2.260;2023-01-13T11:06:09;8.80;99.90
59307;DHT22;47983;53.016;-2.260;2023-01-13T11:08:47;8.90;99.90
59307;DHT22;47983;53.016;-2.260;2023-01-13T11:11:37;9.00;99.90
59307;DHT22;47983;53.016;-2.260;2023-01-13T11:19:56;9.20;99.90
59307;DHT22;47983;53.016;-2.260;2023-01-13T11:22:35;9.30;99.90
59307;DHT22;47983;53.016;-2.260;2023-01-13T11:25:09;9.30;99.90
59307;DHT22;47983;53.016;-2.260;2023-01-13T11:27:51;9.40;99.90
59307;DHT22;47983;53.016;-2.260;2023-01-13T11:35:46;9.60;99.90
59307;DHT22;47983;53.016;-2.260;2023-01-13T11:38:43;9.60;99.90
59307;DHT22;47983;53.016;-2.260;2023-01-13T11:46:47;10.20;99.90
59307;DHT22;47983;53.016;-2.260;2023-01-13T11:49:25;10.10;99.90
59307;DHT22;47983;53.016;-2.260;2023-01-13T12:02:52;9.60;99.90
59307;DHT22;47983;53.016;-2.260;2023-01-13T12:11:32;9.20;99.90
59307;DHT22;47983;53.016;-2.260;2023-01-13T12:16:58;9.40;99.90
59307;DHT22;47983;53.016;-2.260;2023-01-13T12:19:31;9.90;99.90
59307;DHT22;47983;53.016;-2.260;2023-01-13T12:22:34;10.10;99.90
59307;DHT22;47983;53.016;-2.260;2023-01-13T12:28:13;10.60;99.90
59307;DHT22;47983;53.016;-2.260;2023-01-13T12:30:47;10.80;99.90
59307;DHT22;47983;53.016;-2.260;2023-01-13T12:33:41;10.80;99.90
59307;DHT22;47983;53.016;-2.260;2023-01-13T12:38:47;10.10;99.90
59307;DHT22;47983;53.016;-2.260;2023-01-13T12:44:30;9.70;99.90
59307;DHT22;47983;53.016;-2.260;2023-01-13T12:46:58;9.60;99.90
59307;DHT22;47983;53.016;-2.260;2023-01-13T12:49:29;9.70;99.90
59307;DHT22;47983;53.016;-2.260;2023-01-13T12:56:57;9.70;99.90
59307;DHT22;47983;53.016;-2.260;2023-01-13T13:04:51;9.60;99.90
59307;DHT22;47983;53.016;-2.260;2023-01-13T13:07:20;9.60;99.90
59307;DHT22;47983;53.016;-2.260;2023-01-13T13:10:12;10.60;99.90
59307;DHT22;47983;53.016;-2.260;2023-01-13T13:15:29;11.30;99.90
59307;DHT22;47983;53.016;-2.260;2023-01-13T13:26:16;10.20;99.90
59307;DHT22;47983;53.016;-2.260;2023-01-13T13:39:40;9.20;99.90
59307;DHT22;47983;53.016;-2.260;2023-01-13T13:42:34;10.10;99.90
59307;DHT22;47983;53.016;-2.260;2023-01-13T13:45:14;10.20;99.90
59307;DHT22;47983;53.016;-2.260;2023-01-13T13:48:27;10.90;99.90
59307;DHT22;47983;53.016;-2.260;2023-01-13T13:50:58;11.70;99.90
59307;DHT22;47983;53.016;-2.260;2023-01-13T13:53:33;12.20;99.90
59307;DHT22;47983;53.016;-2.260;2023-01-13T13:56:05;12.60;99.90
59307;DHT22;47983;53.016;-2.260;2023-01-13T13:58:39;12.40;99.90
59307;DHT22;47983;53.016;-2.260;2023-01-13T14:01:22;12.10;99.90
59307;DHT22;47983;53.016;-2.260;2023-01-13T14:06:33;11.80;99.90
59307;DHT22;47983;53.016;-2.260;2023-01-13T14:09:02;11.40;99.90
59307;DHT22;47983;53.016;-2.260;2023-01-13T14:11:32;10.80;99.90
59307;DHT22;47983;53.016;-2.260;2023-01-13T14:14:05;10.40;99.90
59307;DHT22;47983;53.016;-2.260;2023-01-13T14:16:33;10.00;99.90
59307;DHT22;47983;53.016;-2.260;2023-01-13T14:19:02;10.00;99.90
59307;DHT22;47983;53.016;-2.260;2023-01-13T14:21:30;9.90;99.90
59307;DHT22;47983;53.016;-2.260;2023-01-13T14:24:11;9.90;99.90
59307;DHT22;47983;53.016;-2.260;2023-01-13T14:26:41;9.90;99.90
59307;DHT22;47983;53.016;-2.260;2023-01-13T14:29:13;9.80;99.90
59307;DHT22;47983;53.016;-2.260;2023-01-13T14:31:42;9.70;99.90
59307;DHT22;47983;53.016;-2.260;2023-01-13T14:34:11;9.60;99.90
59307;DHT22;47983;53.016;-2.260;2023-01-13T14:37:00;9.50;99.90
59307;DHT22;47983;53.016;-2.260;2023-01-13T14:39:39;9.50;99.90
59307;DHT22;47983;53.016;-2.260;2023-01-13T14:42:12;9.50;99.90
59307;DHT22;47983;53.016;-2.260;2023-01-13T14:44:46;9.60;99.90
59307;DHT22;47983;53.016;-2.260;2023-01-13T14:47:23;9.80;99.90
59307;DHT22;47983;53.016;-2.260;2023-01-13T14:50:03;10.00;99.90
59307;DHT22;47983;53.016;-2.260;2023-01-13T14:52:36;10.10;99.90
59307;DHT22;47983;53.016;-2.260;2023-01-13T14:57:52;9.90;99.90
59307;DHT22;47983;53.016;-2.260;2023-01-13T15:00:23;9.90;99.90
59307;DHT22;47983;53.016;-2.260;2023-01-13T15:10:51;9.40;99.90
59307;DHT22;47983;53.016;-2.260;2023-01-13T15:15:58;9.10;99.90
59307;DHT22;47983;53.016;-2.260;2023-01-13T15:18:27;9.00;99.90
59307;DHT22;47983;53.016;-2.260;2023-01-13T15:20:54;8.90;99.90
59307;DHT22;47983;53.016;-2.260;2023-01-13T15:23:22;8.80;99.90
59307;DHT22;47983;53.016;-2.260;2023-01-13T15:25:50;8.70;99.90
59307;DHT22;47983;53.016;-2.260;2023-01-13T15:28:18;8.70;99.90
59307;DHT22;47983;53.016;-2.260;2023-01-13T15:30:48;8.70;99.90
59307;DHT22;47983;53.016;-2.260;2023-01-13T15:33:16;8.70;99.90
59307;DHT22;47983;53.016;-2.260;2023-01-13T15:35:46;8.70;99.90
59307;DHT22;47983;53.016;-2.260;2023-01-13T15:38:18;8.70;99.90
59307;DHT22;47983;53.016;-2.260;2023-01-13T15:40:47;8.80;99.90
59307;DHT22;47983;53.016;-2.260;2023-01-13T15:43:22;8.70;99.90
59307;DHT22;47983;53.016;-2.260;2023-01-13T15:46:16;8.60;99.90
59307;DHT22;47983;53.016;-2.260;2023-01-13T15:49:07;8.60;99.90
59307;DHT22;47983;53.016;-2.260;2023-01-13T15:51:39;8.40;99.90
59307;DHT22;47983;53.016;-2.260;2023-01-13T15:54:07;8.40;99.90
59307;DHT22;47983;53.016;-2.260;2023-01-13T15:56:36;8.30;99.90
59307;DHT22;47983;53.016;-2.260;2023-01-13T15:59:08;8.20;99.90
59307;DHT22;47983;53.016;-2.260;2023-01-13T16:01:40;8.20;99.90
59307;DHT22;47983;53.016;-2.260;2023-01-13T16:04:08;8.10;99.90
59307;DHT22;47983;53.016;-2.260;2023-01-13T16:06:36;8.00;99.90
59307;DHT22;47983;53.016;-2.260;2023-01-13T16:09:04;7.90;99.90
59307;DHT22;47983;53.016;-2.260;2023-01-13T16:11:32;7.90;99.90
59307;DHT22;47983;53.016;-2.260;2023-01-13T16:14:00;7.80;99.90
59307;DHT22;47983;53.016;-2.260;2023-01-13T16:16:28;7.80;99.90
59307;DHT22;47983;53.016;-2.260;2023-01-13T16:18:56;7.60;99.90
59307;DHT22;47983;53.016;-2.260;2023-01-13T16:21:23;7.60;99.90
59307;DHT22;47983;53.016;-2.260;2023-01-13T16:23:51;7.60;99.90
59307;DHT22;47983;53.016;-2.260;2023-01-13T16:26:25;7.50;99.90
59307;DHT22;47983;53.016;-2.260;2023-01-13T16:28:55;7.40;99.90
59307;DHT22;47983;53.016;-2.260;2023-01-13T16:31:28;7.30;99.90
59307;DHT22;47983;53.016;-2.260;2023-01-13T16:33:59;7.30;99.90
59307;DHT22;47983;53.016;-2.260;2023-01-13T16:36:29;7.20;99.90
59307;DHT22;47983;53.016;-2.260;2023-01-13T16:38:58;7.20;99.90
59307;DHT22;47983;53.016;-2.260;2023-01-13T16:41:25;7.10;99.90
59307;DHT22;47983;53.016;-2.260;2023-01-13T16:43:53;7.10;99.90
59307;DHT22;47983;53.016;-2.260;2023-01-13T16:46:28;6.90;99.90
59307;DHT22;47983;53.016;-2.260;2023-01-13T16:49:01;6.90;99.90
59307;DHT22;47983;53.016;-2.260;2023-01-13T16:51:30;6.90;99.90
59307;DHT22;47983;53.016;-2.260;2023-01-13T16:53:57;6.80;99.90
59307;DHT22;47983;53.016;-2.260;2023-01-13T16:56:28;6.70;99.90
59307;DHT22;47983;53.016;-2.260;2023-01-13T16:58:58;6.70;99.90
59307;DHT22;47983;53.016;-2.260;2023-01-13T17:01:29;6.60;99.90
59307;DHT22;47983;53.016;-2.260;2023-01-13T17:03:59;6.60;99.90
59307;DHT22;47983;53.016;-2.260;2023-01-13T17:09:13;6.50;99.90
59307;DHT22;47983;53.016;-2.260;2023-01-13T17:11:41;6.50;99.90
59307;DHT22;47983;53.016;-2.260;2023-01-13T17:14:09;6.40;99.90
59307;DHT22;47983;53.016;-2.260;2023-01-13T17:16:46;6.40;99.90
59307;DHT22;47983;53.016;-2.260;2023-01-13T17:19:14;6.40;99.90
59307;DHT22;47983;53.016;-2.260;2023-01-13T17:21:42;6.30;99.90
59307;DHT22;47983;53.016;-2.260;2023-01-13T17:24:09;6.30;99.90
59307;DHT22;47983;53.016;-2.260;2023-01-13T17:26:40;6.30;99.90
59307;DHT22;47983;53.016;-2.260;2023-01-13T17:29:12;6.30;99.90
59307;DHT22;47983;53.016;-2.260;2023-01-13T17:31:41;6.30;99.90
59307;DHT22;47983;53.016;-2.260;2023-01-13T17:34:10;6.30;99.90
59307;DHT22;47983;53.016;-2.260;2023-01-13T17:36:38;6.30;99.90
59307;DHT22;47983;53.016;-2.260;2023-01-13T17:39:06;6.30;99.90
59307;DHT22;47983;53.016;-2.260;2023-01-13T17:41:33;7.40;99.90
59307;DHT22;47983;53.016;-2.260;2023-01-13T17:44:01;6.40;99.90
59307;DHT22;47983;53.016;-2.260;2023-01-13T17:46:28;6.40;99.90
59307;DHT22;47983;53.016;-2.260;2023-01-13T17:48:56;6.40;99.90
59307;DHT22;47983;53.016;-2.260;2023-01-13T17:51:24;6.30;99.90
59307;DHT22;47983;53.016;-2.260;2023-01-13T17:53:52;7.00;99.90
59307;DHT22;47983;53.016;-2.260;2023-01-13T17:56:20;6.80;99.90
59307;DHT22;47983;53.016;-2.260;2023-01-13T17:58:48;6.30;99.90
59307;DHT22;47983;53.016;-2.260;2023-01-13T18:01:18;6.40;99.90
59307;DHT22;47983;53.016;-2.260;2023-01-13T18:03:46;6.30;99.90
59307;DHT22;47983;53.016;-2.260;2023-01-13T18:06:20;6.30;99.90
59307;DHT22;47983;53.016;-2.260;2023-01-13T18:08:49;6.40;99.90
59307;DHT22;47983;53.016;-2.260;2023-01-13T18:11:18;6.20;99.90
59307;DHT22;47983;53.016;-2.260;2023-01-13T18:13:51;6.20;99.90
59307;DHT22;47983;53.016;-2.260;2023-01-13T18:16:22;6.10;99.90
59307;DHT22;47983;53.016;-2.260;2023-01-13T18:18:51;6.10;99.90
59307;DHT22;47983;53.016;-2.260;2023-01-13T18:21:24;6.00;99.90
59307;DHT22;47983;53.016;-2.260;2023-01-13T18:24:14;6.00;99.90
59307;DHT22;47983;53.016;-2.260;2023-01-13T18:27:01;6.00;99.90
59307;DHT22;47983;53.016;-2.260;2023-01-13T18:29:55;6.00;99.90
59307;DHT22;47983;53.016;-2.260;2023-01-13T18:32:26;5.90;99.90
59307;DHT22;47983;53.016;-2.260;2023-01-13T18:35:05;5.90;99.90
59307;DHT22;47983;53.016;-2.260;2023-01-13T18:37:37;5.80;99.90
59307;DHT22;47983;53.016;-2.260;2023-01-13T18:40:09;5.90;99.90
59307;DHT22;47983;53.016;-2.260;2023-01-13T18:42:38;5.90;99.90
59307;DHT22;47983;53.016;-2.260;2023-01-13T18:45:19;5.80;99.90
59307;DHT22;47983;53.016;-2.260;2023-01-13T18:47:48;5.90;99.90
59307;DHT22;47983;53.016;-2.260;2023-01-13T18:50:15;5.80;99.90
59307;DHT22;47983;53.016;-2.260;2023-01-13T18:52:44;5.90;99.90
59307;DHT22;47983;53.016;-2.260;2023-01-13T18:55:11;5.80;99.90